sensor_id;sensor_type;location;lat;lon;timestamp;pressure;altitude;pressure_sealevel;temperature;humidity
76464;BME280;65301;46.666;20.110;2023-01-06T00:02:30;101215.53;;;8.16;72.99
76464;BME280;65301;46.666;20.110;2023-01-06T00:05:32;101234.94;;;8.25;72.40
76464;BME280;65301;46.666;20.110;2023-01-06T00:08:34;101233.91;;;8.21;72.75
76464;BME280;65301;46.666;20.110;2023-01-06T00:11:36;101227.63;;;8.22;72.72
76464;BME280;65301;46.666;20.110;2023-01-06T00:14:38;101243.41;;;8.22;72.93
76464;BME280;65301;46.666;20.110;2023-01-06T00:17:43;101233.94;;;8.16;72.93
76464;BME280;65301;46.666;20.110;2023-01-06T00:20:45;101232.63;;;8.13;72.60
76464;BME280;65301;46.666;20.110;2023-01-06T00:23:50;101240.03;;;8.06;73.18
76464;BME280;65301;46.666;20.110;2023-01-06T00:26:51;101250.81;;;8.15;73.07
76464;BME280;65301;46.666;20.110;2023-01-06T00:29:53;101254.00;;;8.06;72.78
76464;BME280;65301;46.666;20.110;2023-01-06T00:32:55;101251.91;;;8.03;73.52
76464;BME280;65301;46.666;20.110;2023-01-06T00:35:58;101266.88;;;8.08;73.14
76464;BME280;65301;46.666;20.110;2023-01-06T00:38:59;101273.44;;;8.11;73.61
76464;BME280;65301;46.666;20.110;2023-01-06T00:42:01;101265.31;;;8.07;73.35
76464;BME280;65301;46.666;20.110;2023-01-06T00:45:07;101273.72;;;8.04;73.58
76464;BME280;65301;46.666;20.110;2023-01-06T00:48:09;101278.69;;;8.11;73.35
76464;BME280;65301;46.666;20.110;2023-01-06T00:51:10;101291.84;;;8.11;72.90
76464;BME280;65301;46.666;20.110;2023-01-06T00:54:12;101296.63;;;8.03;73.53
76464;BME280;65301;46.666;20.110;2023-01-06T00:57:14;101296.91;;;7.97;73.42
76464;BME280;65301;46.666;20.110;2023-01-06T01:00:16;101310.84;;;7.97;73.88
76464;BME280;65301;46.666;20.110;2023-01-06T01:03:19;101312.97;;;7.95;73.29
76464;BME280;65301;46.666;20.110;2023-01-06T01:06:21;101307.16;;;7.93;73.88
76464;BME280;65301;46.666;20.110;2023-01-06T01:09:25;101301.66;;;7.95;73.42
76464;BME280;65301;46.666;20.110;2023-01-06T01:12:27;101306.13;;;7.94;74.13
76464;BME280;65301;46.666;20.110;2023-01-06T01:15:30;101306.66;;;7.91;73.54
76464;BME280;65301;46.666;20.110;2023-01-06T01:18:32;101287.72;;;7.94;73.30
76464;BME280;65301;46.666;20.110;2023-01-06T01:21:34;101287.47;;;7.86;73.94
76464;BME280;65301;46.666;20.110;2023-01-06T01:24:36;101271.97;;;7.84;73.50
76464;BME280;65301;46.666;20.110;2023-01-06T01:27:38;101277.72;;;7.86;73.84
76464;BME280;65301;46.666;20.110;2023-01-06T01:30:40;101275.09;;;7.86;74.23
76464;BME280;65301;46.666;20.110;2023-01-06T01:33:42;101271.94;;;7.89;73.71
76464;BME280;65301;46.666;20.110;2023-01-06T01:36:45;101262.22;;;7.85;73.85
76464;BME280;65301;46.666;20.110;2023-01-06T01:39:47;101276.69;;;7.92;74.04
76464;BME280;65301;46.666;20.110;2023-01-06T01:42:49;101279.03;;;7.94;73.68
76464;BME280;65301;46.666;20.110;2023-01-06T01:45:52;101277.16;;;7.99;73.91
76464;BME280;65301;46.666;20.110;2023-01-06T01:48:59;101290.03;;;8.01;73.87
76464;BME280;65301;46.666;20.110;2023-01-06T01:52:01;101296.63;;;8.03;73.49
76464;BME280;65301;46.666;20.110;2023-01-06T01:55:05;101294.25;;;8.02;73.07
76464;BME280;65301;46.666;20.110;2023-01-06T01:58:12;101307.66;;;8.00;73.37
76464;BME280;65301;46.666;20.110;2023-01-06T02:01:16;101312.41;;;8.03;73.21
76464;BME280;65301;46.666;20.110;2023-01-06T02:04:20;101321.59;;;8.06;72.74
76464;BME280;65301;46.666;20.110;2023-01-06T02:07:25;101341.09;;;8.05;73.95
76464;BME280;65301;46.666;20.110;2023-01-06T02:10:27;101336.84;;;8.09;72.79
76464;BME280;65301;46.666;20.110;2023-01-06T02:13:31;101332.63;;;8.08;73.55
76464;BME280;65301;46.666;20.110;2023-01-06T02:46:01;101342.94;;;7.99;73.86
76464;BME280;65301;46.666;20.110;2023-01-06T02:52:44;101361.66;;;7.88;74.38
76464;BME280;65301;46.666;20.110;2023-01-06T02:55:48;101370.06;;;7.90;73.83
76464;BME280;65301;46.666;20.110;2023-01-06T02:59:01;101357.19;;;7.78;74.60
76464;BME280;65301;46.666;20.110;2023-01-06T03:02:05;101356.66;;;7.76;75.17
76464;BME280;65301;46.666;20.110;2023-01-06T03:05:12;101348.22;;;7.79;75.23
76464;BME280;65301;46.666;20.110;2023-01-06T03:08:21;101331.16;;;7.72;74.86
76464;BME280;65301;46.666;20.110;2023-01-06T03:11:26;101340.13;;;7.71;74.93
76464;BME280;65301;46.666;20.110;2023-01-06T03:14:42;101335.09;;;7.69;75.38
76464;BME280;65301;46.666;20.110;2023-01-06T03:17:45;101334.34;;;7.69;75.85
76464;BME280;65301;46.666;20.110;2023-01-06T03:20:48;101339.03;;;7.67;75.50
76464;BME280;65301;46.666;20.110;2023-01-06T03:23:51;101339.03;;;7.67;75.65
76464;BME280;65301;46.666;20.110;2023-01-06T03:26:54;101339.59;;;7.64;76.14
76464;BME280;65301;46.666;20.110;2023-01-06T03:29:55;101351.94;;;7.68;76.10
76464;BME280;65301;46.666;20.110;2023-01-06T03:33:24;101352.75;;;7.69;75.48
76464;BME280;65301;46.666;20.110;2023-01-06T03:37:23;101352.47;;;7.65;76.20
76464;BME280;65301;46.666;20.110;2023-01-06T03:46:36;101356.69;;;7.61;75.55
76464;BME280;65301;46.666;20.110;2023-01-06T03:49:52;101362.19;;;7.65;75.82
76464;BME280;65301;46.666;20.110;2023-01-06T03:56:38;101372.19;;;7.68;75.91
76464;BME280;65301;46.666;20.110;2023-01-06T03:59:46;101357.72;;;7.65;75.71
76464;BME280;65301;46.666;20.110;2023-01-06T04:02:49;101374.53;;;7.64;76.24
76464;BME280;65301;46.666;20.110;2023-01-06T04:05:52;101377.16;;;7.64;76.17
76464;BME280;65301;46.666;20.110;2023-01-06T04:08:54;101371.16;;;7.59;75.89
76464;BME280;65301;46.666;20.110;2023-01-06T04:11:56;101376.66;;;7.57;76.08
76464;BME280;65301;46.666;20.110;2023-01-06T04:15:19;101373.78;;;7.64;76.04
76464;BME280;65301;46.666;20.110;2023-01-06T04:18:22;101376.41;;;7.64;75.91
76464;BME280;65301;46.666;20.110;2023-01-06T04:21:23;101379.56;;;7.51;76.37
76464;BME280;65301;46.666;20.110;2023-01-06T04:24:25;101381.66;;;7.44;76.71
76464;BME280;65301;46.666;20.110;2023-01-06T04:27:28;101380.06;;;7.43;76.74
76464;BME280;65301;46.666;20.110;2023-01-06T04:30:30;101383.25;;;7.50;76.22
76464;BME280;65301;46.666;20.110;2023-01-06T04:33:32;101382.97;;;7.46;76.68
76464;BME280;65301;46.666;20.110;2023-01-06T04:36:33;101385.34;;;7.48;76.21
76464;BME280;65301;46.666;20.110;2023-01-06T04:39:35;101376.94;;;7.46;76.23
76464;BME280;65301;46.666;20.110;2023-01-06T04:42:37;101384.56;;;7.42;77.02
76464;BME280;65301;46.666;20.110;2023-01-06T04:45:57;101379.31;;;7.37;76.69
76464;BME280;65301;46.666;20.110;2023-01-06T04:49:02;101380.84;;;7.33;77.03
76464;BME280;65301;46.666;20.110;2023-01-06T04:52:04;101387.69;;;7.34;76.80
76464;BME280;65301;46.666;20.110;2023-01-06T04:55:06;101398.22;;;7.39;76.82
76464;BME280;65301;46.666;20.110;2023-01-06T04:58:08;101394.28;;;7.36;76.08
76464;BME280;65301;46.666;20.110;2023-01-06T05:01:11;101398.22;;;7.39;76.71
76464;BME280;65301;46.666;20.110;2023-01-06T05:04:13;101394.00;;;7.38;76.33
76464;BME280;65301;46.666;20.110;2023-01-06T05:07:15;101389.81;;;7.42;76.65
76464;BME280;65301;46.666;20.110;2023-01-06T05:10:17;101390.84;;;7.36;76.78
76464;BME280;65301;46.666;20.110;2023-01-06T05:13:19;101396.63;;;7.38;76.44
76464;BME280;65301;46.666;20.110;2023-01-06T05:16:32;101401.09;;;7.43;76.35
76464;BME280;65301;46.666;20.110;2023-01-06T05:19:34;101404.28;;;7.39;75.83
76464;BME280;65301;46.666;20.110;2023-01-06T05:22:36;101410.03;;;7.36;76.17
76464;BME280;65301;46.666;20.110;2023-01-06T05:25:37;101408.22;;;7.37;75.78
76464;BME280;65301;46.666;20.110;2023-01-06T05:28:39;101416.63;;;7.39;75.36
76464;BME280;65301;46.666;20.110;2023-01-06T05:31:41;101425.53;;;7.33;75.78
76464;BME280;65301;46.666;20.110;2023-01-06T05:34:42;101423.19;;;7.31;75.67
76464;BME280;65301;46.666;20.110;2023-01-06T05:37:44;101428.94;;;7.28;75.99
76464;BME280;65301;46.666;20.110;2023-01-06T05:40:50;101427.13;;;7.34;75.85
76464;BME280;65301;46.666;20.110;2023-01-06T05:43:51;101442.88;;;7.34;75.79
76464;BME280;65301;46.666;20.110;2023-01-06T05:46:53;101432.63;;;7.22;76.05
76464;BME280;65301;46.666;20.110;2023-01-06T05:49:55;101457.31;;;7.26;76.24
76464;BME280;65301;46.666;20.110;2023-01-06T05:52:57;101455.00;;;7.35;75.53
76464;BME280;65301;46.666;20.110;2023-01-06T05:56:02;101461.81;;;7.41;75.16
76464;BME280;65301;46.666;20.110;2023-01-06T05:59:04;101450.78;;;7.39;75.12
76464;BME280;65301;46.666;20.110;2023-01-06T06:02:06;101444.72;;;7.33;76.04
76464;BME280;65301;46.666;20.110;2023-01-06T06:05:08;101436.59;;;7.30;75.28
76464;BME280;65301;46.666;20.110;2023-01-06T06:08:09;101432.09;;;7.35;75.68
76464;BME280;65301;46.666;20.110;2023-01-06T06:11:14;101422.13;;;7.32;75.83
76464;BME280;65301;46.666;20.110;2023-01-06T06:14:16;101428.19;;;7.28;76.02
76464;BME280;65301;46.666;20.110;2023-01-06T06:17:18;101425.00;;;7.36;76.27
76464;BME280;65301;46.666;20.110;2023-01-06T06:20:19;101425.53;;;7.38;75.58
76464;BME280;65301;46.666;20.110;2023-01-06T06:23:21;101430.53;;;7.34;75.95
76464;BME280;65301;46.666;20.110;2023-01-06T06:26:23;101435.81;;;7.39;75.50
76464;BME280;65301;46.666;20.110;2023-01-06T06:29:25;101435.78;;;7.29;76.32
76464;BME280;65301;46.666;20.110;2023-01-06T06:32:29;101441.56;;;7.36;75.50
76464;BME280;65301;46.666;20.110;2023-01-06T06:35:31;101450.25;;;7.37;75.73
76464;BME280;65301;46.666;20.110;2023-01-06T06:38:32;101452.38;;;7.40;75.71
76464;BME280;65301;46.666;20.110;2023-01-06T06:41:35;101455.25;;;7.38;75.49
76464;BME280;65301;46.666;20.110;2023-01-06T06:44:37;101462.09;;;7.45;75.76
76464;BME280;65301;46.666;20.110;2023-01-06T06:47:39;101471.53;;;7.46;76.20
76464;BME280;65301;46.666;20.110;2023-01-06T06:50:40;101490.47;;;7.48;75.75
76464;BME280;65301;46.666;20.110;2023-01-06T06:53:42;101499.16;;;7.48;75.86
76464;BME280;65301;46.666;20.110;2023-01-06T06:56:44;101495.19;;;7.46;76.51
76464;BME280;65301;46.666;20.110;2023-01-06T06:59:46;101499.66;;;7.50;76.31
76464;BME280;65301;46.666;20.110;2023-01-06T07:02:49;101492.31;;;7.52;76.06
76464;BME280;65301;46.666;20.110;2023-01-06T07:05:51;101496.00;;;7.56;76.08
76464;BME280;65301;46.666;20.110;2023-01-06T07:08:54;101490.75;;;7.61;75.64
76464;BME280;65301;46.666;20.110;2023-01-06T07:11:56;101497.34;;;7.64;76.15
76464;BME280;65301;46.666;20.110;2023-01-06T07:14:57;101503.66;;;7.73;76.27
76464;BME280;65301;46.666;20.110;2023-01-06T07:18:03;101495.25;;;7.81;75.40
76464;BME280;65301;46.666;20.110;2023-01-06T07:21:05;101485.50;;;7.91;75.26
76464;BME280;65301;46.666;20.110;2023-01-06T07:24:12;101495.50;;;8.04;75.01
76464;BME280;65301;46.666;20.110;2023-01-06T07:27:14;101487.34;;;8.26;73.57
76464;BME280;65301;46.666;20.110;2023-01-06T07:30:16;101488.03;;;8.67;72.58
76464;BME280;65301;46.666;20.110;2023-01-06T07:33:18;101492.16;;;8.88;71.93
76464;BME280;65301;46.666;20.110;2023-01-06T07:36:20;101493.28;;;8.77;71.97
76464;BME280;65301;46.666;20.110;2023-01-06T07:39:21;101490.00;;;9.00;70.99
76464;BME280;65301;46.666;20.110;2023-01-06T07:42:24;101491.06;;;9.43;69.71
76464;BME280;65301;46.666;20.110;2023-01-06T07:45:25;101486.97;;;9.99;67.58
76464;BME280;65301;46.666;20.110;2023-01-06T07:48:27;101499.16;;;10.53;65.50
76464;BME280;65301;46.666;20.110;2023-01-06T07:51:29;101498.75;;;10.64;64.56
76464;BME280;65301;46.666;20.110;2023-01-06T07:54:31;101504.47;;;10.71;64.55
76464;BME280;65301;46.666;20.110;2023-01-06T07:57:33;101525.06;;;10.75;63.90
76464;BME280;65301;46.666;20.110;2023-01-06T08:00:35;101521.38;;;10.70;65.35
76464;BME280;65301;46.666;20.110;2023-01-06T08:03:37;101520.28;;;10.77;65.97
76464;BME280;65301;46.666;20.110;2023-01-06T08:06:39;101520.22;;;10.82;65.44
76464;BME280;65301;46.666;20.110;2023-01-06T08:09:41;101510.75;;;10.99;64.94
76464;BME280;65301;46.666;20.110;2023-01-06T08:12:43;101504.84;;;11.07;64.41
76464;BME280;65301;46.666;20.110;2023-01-06T08:15:45;101494.25;;;11.26;63.80
76464;BME280;65301;46.666;20.110;2023-01-06T08:18:49;101475.16;;;11.85;61.83
76464;BME280;65301;46.666;20.110;2023-01-06T08:21:50;101474.47;;;12.39;59.16
76464;BME280;65301;46.666;20.110;2023-01-06T08:24:52;101471.09;;;12.88;56.84
76464;BME280;65301;46.666;20.110;2023-01-06T08:27:57;101483.47;;;13.42;55.67
76464;BME280;65301;46.666;20.110;2023-01-06T08:30:59;101496.25;;;13.40;55.52
76464;BME280;65301;46.666;20.110;2023-01-06T08:34:01;101507.72;;;13.71;53.92
76464;BME280;65301;46.666;20.110;2023-01-06T08:37:03;101510.53;;;13.30;54.11
76464;BME280;65301;46.666;20.110;2023-01-06T08:40:05;101517.44;;;13.04;55.39
76464;BME280;65301;46.666;20.110;2023-01-06T08:43:07;101530.91;;;12.53;55.22
76464;BME280;65301;46.666;20.110;2023-01-06T08:46:11;101549.22;;;12.49;54.49
76464;BME280;65301;46.666;20.110;2023-01-06T08:49:14;101571.94;;;12.96;52.83
76464;BME280;65301;46.666;20.110;2023-01-06T08:52:16;101564.56;;;12.93;53.05
76464;BME280;65301;46.666;20.110;2023-01-06T08:55:18;101575.00;;;13.17;52.86
76464;BME280;65301;46.666;20.110;2023-01-06T08:58:20;101571.97;;;13.59;51.95
76464;BME280;65301;46.666;20.110;2023-01-06T09:01:27;101589.72;;;13.72;51.81
76464;BME280;65301;46.666;20.110;2023-01-06T09:04:29;101585.84;;;13.56;52.62
76464;BME280;65301;46.666;20.110;2023-01-06T09:07:31;101586.59;;;13.21;53.16
76464;BME280;65301;46.666;20.110;2023-01-06T09:10:36;101594.34;;;13.17;51.77
76464;BME280;65301;46.666;20.110;2023-01-06T09:13:38;101602.09;;;13.00;53.24
76464;BME280;65301;46.666;20.110;2023-01-06T09:16:40;101606.41;;;13.23;53.06
76464;BME280;65301;46.666;20.110;2023-01-06T09:19:42;101609.88;;;13.73;51.42
76464;BME280;65301;46.666;20.110;2023-01-06T09:22:44;101616.25;;;14.08;49.71
76464;BME280;65301;46.666;20.110;2023-01-06T09:25:46;101615.81;;;13.92;50.23
76464;BME280;65301;46.666;20.110;2023-01-06T09:28:48;101621.13;;;13.92;49.68
76464;BME280;65301;46.666;20.110;2023-01-06T09:31:49;101627.63;;;14.22;49.21
76464;BME280;65301;46.666;20.110;2023-01-06T09:34:51;101626.56;;;14.54;48.18
76464;BME280;65301;46.666;20.110;2023-01-06T09:37:53;101628.59;;;15.27;46.79
76464;BME280;65301;46.666;20.110;2023-01-06T09:41:02;101631.84;;;16.06;44.60
76464;BME280;65301;46.666;20.110;2023-01-06T09:44:06;101635.06;;;16.63;43.53
76464;BME280;65301;46.666;20.110;2023-01-06T09:47:15;101617.00;;;17.36;41.29
76464;BME280;65301;46.666;20.110;2023-01-06T09:50:35;101618.88;;;17.85;40.07
76464;BME280;65301;46.666;20.110;2023-01-06T09:53:43;101602.38;;;18.16;40.17
76464;BME280;65301;46.666;20.110;2023-01-06T09:56:55;101596.56;;;18.34;39.29
76464;BME280;65301;46.666;20.110;2023-01-06T09:59:59;101589.56;;;17.76;40.65
76464;BME280;65301;46.666;20.110;2023-01-06T10:03:03;101590.53;;;17.72;39.59
76464;BME280;65301;46.666;20.110;2023-01-06T10:13:16;101599.75;;;17.04;39.20
76464;BME280;65301;46.666;20.110;2023-01-06T10:19:53;101599.09;;;16.78;40.41
76464;BME280;65301;46.666;20.110;2023-01-06T10:26:30;101603.50;;;17.03;40.54
76464;BME280;65301;46.666;20.110;2023-01-06T10:29:34;101603.94;;;16.76;40.40
76464;BME280;65301;46.666;20.110;2023-01-06T10:32:38;101597.38;;;16.10;42.67
76464;BME280;65301;46.666;20.110;2023-01-06T10:35:42;101595.31;;;16.07;43.29
76464;BME280;65301;46.666;20.110;2023-01-06T10:38:49;101598.88;;;16.36;41.92
76464;BME280;65301;46.666;20.110;2023-01-06T10:42:03;101598.19;;;16.65;41.86
76464;BME280;65301;46.666;20.110;2023-01-06T10:48:42;101591.16;;;16.52;41.83
76464;BME280;65301;46.666;20.110;2023-01-06T10:51:53;101580.38;;;16.86;40.82
76464;BME280;65301;46.666;20.110;2023-01-06T10:55:03;101583.88;;;17.07;40.02
76464;BME280;65301;46.666;20.110;2023-01-06T11:01:23;101582.31;;;16.77;39.37
76464;BME280;65301;46.666;20.110;2023-01-06T11:04:26;101581.00;;;16.37;40.19
76464;BME280;65301;46.666;20.110;2023-01-06T11:07:29;101587.47;;;16.19;39.90
76464;BME280;65301;46.666;20.110;2023-01-06T11:10:36;101580.50;;;16.52;39.33
76464;BME280;65301;46.666;20.110;2023-01-06T11:13:40;101576.09;;;17.85;37.65
76464;BME280;65301;46.666;20.110;2023-01-06T11:17:13;101573.22;;;19.04;35.10
76464;BME280;65301;46.666;20.110;2023-01-06T11:23:21;101568.22;;;17.88;36.37
76464;BME280;65301;46.666;20.110;2023-01-06T11:26:23;101563.94;;;17.05;38.10
76464;BME280;65301;46.666;20.110;2023-01-06T11:29:28;101551.94;;;17.40;37.93
76464;BME280;65301;46.666;20.110;2023-01-06T11:32:30;101542.19;;;19.03;35.47
76464;BME280;65301;46.666;20.110;2023-01-06T11:35:32;101539.28;;;19.08;35.16
76464;BME280;65301;46.666;20.110;2023-01-06T11:38:40;101531.19;;;18.80;34.95
76464;BME280;65301;46.666;20.110;2023-01-06T11:41:46;101537.69;;;19.19;34.89
76464;BME280;65301;46.666;20.110;2023-01-06T11:44:48;101536.25;;;19.09;35.14
76464;BME280;65301;46.666;20.110;2023-01-06T11:47:50;101534.69;;;19.88;33.13
76464;BME280;65301;46.666;20.110;2023-01-06T11:50:53;101540.91;;;20.35;33.01
76464;BME280;65301;46.666;20.110;2023-01-06T11:53:56;101537.81;;;20.99;31.66
76464;BME280;65301;46.666;20.110;2023-01-06T11:57:03;101538.03;;;21.25;30.95
76464;BME280;65301;46.666;20.110;2023-01-06T12:04:10;101528.50;;;21.89;29.83
76464;BME280;65301;46.666;20.110;2023-01-06T12:10:31;101525.53;;;22.88;28.71
76464;BME280;65301;46.666;20.110;2023-01-06T12:13:35;101530.78;;;23.07;28.11
76464;BME280;65301;46.666;20.110;2023-01-06T12:23:32;101518.69;;;23.54;27.70
76464;BME280;65301;46.666;20.110;2023-01-06T12:26:35;101509.22;;;23.67;27.32
76464;BME280;65301;46.666;20.110;2023-01-06T12:29:38;101520.97;;;23.52;27.76
76464;BME280;65301;46.666;20.110;2023-01-06T12:32:41;101515.06;;;23.09;27.83
76464;BME280;65301;46.666;20.110;2023-01-06T12:35:47;101526.53;;;22.77;28.91
76464;BME280;65301;46.666;20.110;2023-01-06T12:38:56;101522.09;;;22.88;28.10
76464;BME280;65301;46.666;20.110;2023-01-06T12:42:19;101523.84;;;22.77;28.75
76464;BME280;65301;46.666;20.110;2023-01-06T12:45:32;101519.13;;;22.70;27.49
76464;BME280;65301;46.666;20.110;2023-01-06T12:49:03;101511.00;;;22.67;27.73
76464;BME280;65301;46.666;20.110;2023-01-06T12:52:14;101509.56;;;22.73;27.53
76464;BME280;65301;46.666;20.110;2023-01-06T12:55:26;101510.53;;;22.87;27.54
76464;BME280;65301;46.666;20.110;2023-01-06T12:58:49;101518.09;;;23.08;27.71
76464;BME280;65301;46.666;20.110;2023-01-06T13:02:14;101520.75;;;23.34;26.98
76464;BME280;65301;46.666;20.110;2023-01-06T13:15:25;101506.25;;;22.34;28.94
76464;BME280;65301;46.666;20.110;2023-01-06T13:21:39;101506.59;;;22.32;29.18
76464;BME280;65301;46.666;20.110;2023-01-06T13:24:55;101512.41;;;22.12;29.79
76464;BME280;65301;46.666;20.110;2023-01-06T13:28:17;101522.03;;;21.52;31.25
76464;BME280;65301;46.666;20.110;2023-01-06T13:38:22;101522.63;;;18.18;37.87
76464;BME280;65301;46.666;20.110;2023-01-06T13:41:35;101514.63;;;17.52;39.83
76464;BME280;65301;46.666;20.110;2023-01-06T13:44:37;101529.25;;;17.05;40.40
76464;BME280;65301;46.666;20.110;2023-01-06T13:47:40;101538.59;;;16.90;41.16
76464;BME280;65301;46.666;20.110;2023-01-06T13:50:42;101540.84;;;17.09;40.98
76464;BME280;65301;46.666;20.110;2023-01-06T13:53:45;101540.00;;;17.17;40.07
76464;BME280;65301;46.666;20.110;2023-01-06T14:00:22;101552.25;;;16.89;40.65
76464;BME280;65301;46.666;20.110;2023-01-06T14:03:25;101553.69;;;16.40;41.85
76464;BME280;65301;46.666;20.110;2023-01-06T14:09:30;101557.25;;;15.38;44.28
76464;BME280;65301;46.666;20.110;2023-01-06T14:12:35;101557.63;;;14.97;45.41
76464;BME280;65301;46.666;20.110;2023-01-06T14:15:38;101566.09;;;14.59;46.60
76464;BME280;65301;46.666;20.110;2023-01-06T14:19:07;101564.00;;;14.26;47.61
76464;BME280;65301;46.666;20.110;2023-01-06T14:22:16;101578.44;;;13.89;49.27
76464;BME280;65301;46.666;20.110;2023-01-06T14:25:22;101572.69;;;13.51;50.12
76464;BME280;65301;46.666;20.110;2023-01-06T14:28:28;101577.75;;;13.25;51.49
76464;BME280;65301;46.666;20.110;2023-01-06T14:34:34;101588.81;;;12.73;52.40
76464;BME280;65301;46.666;20.110;2023-01-06T14:37:40;101596.56;;;12.56;52.76
76464;BME280;65301;46.666;20.110;2023-01-06T14:41:04;101591.75;;;12.26;53.54
76464;BME280;65301;46.666;20.110;2023-01-06T14:44:13;101600.03;;;12.05;55.45
76464;BME280;65301;46.666;20.110;2023-01-06T14:47:43;101593.19;;;11.86;55.71
76464;BME280;65301;46.666;20.110;2023-01-06T14:50:52;101590.63;;;11.57;56.99
76464;BME280;65301;46.666;20.110;2023-01-06T14:54:45;101581.69;;;11.34;57.69
76464;BME280;65301;46.666;20.110;2023-01-06T14:57:35;101581.72;;;11.11;60.49
76464;BME280;65301;46.666;20.110;2023-01-06T15:00:44;101577.41;;;10.96;59.16
76464;BME280;65301;46.666;20.110;2023-01-06T15:03:56;101582.50;;;10.88;59.57
76464;BME280;65301;46.666;20.110;2023-01-06T15:07:19;101571.28;;;10.77;59.81
76464;BME280;65301;46.666;20.110;2023-01-06T15:10:21;101574.88;;;10.62;61.77
76464;BME280;65301;46.666;20.110;2023-01-06T15:13:28;101572.31;;;10.52;60.88
76464;BME280;65301;46.666;20.110;2023-01-06T15:16:39;101569.66;;;10.52;61.27
76464;BME280;65301;46.666;20.110;2023-01-06T15:19:42;101566.03;;;10.48;62.39
76464;BME280;65301;46.666;20.110;2023-01-06T15:22:47;101568.31;;;10.55;61.68
76464;BME280;65301;46.666;20.110;2023-01-06T15:25:54;101566.56;;;10.45;63.12
76464;BME280;65301;46.666;20.110;2023-01-06T15:29:04;101566.38;;;10.37;62.59
76464;BME280;65301;46.666;20.110;2023-01-06T15:32:11;101563.59;;;10.23;64.71
76464;BME280;65301;46.666;20.110;2023-01-06T15:35:18;101566.06;;;10.15;64.70
76464;BME280;65301;46.666;20.110;2023-01-06T15:41:22;101559.09;;;9.90;64.83
76464;BME280;65301;46.666;20.110;2023-01-06T15:44:35;101570.72;;;9.84;65.59
76464;BME280;65301;46.666;20.110;2023-01-06T15:47:43;101576.09;;;9.74;66.49
76464;BME280;65301;46.666;20.110;2023-01-06T15:50:48;101576.66;;;9.66;65.27
76464;BME280;65301;46.666;20.110;2023-01-06T15:53:57;101575.88;;;9.60;65.12
76464;BME280;65301;46.666;20.110;2023-01-06T15:57:00;101575.41;;;9.53;64.27
76464;BME280;65301;46.666;20.110;2023-01-06T16:00:18;101582.28;;;9.49;63.94
76464;BME280;65301;46.666;20.110;2023-01-06T16:03:24;101581.03;;;9.36;64.35
76464;BME280;65301;46.666;20.110;2023-01-06T16:06:32;101588.44;;;9.29;65.32
76464;BME280;65301;46.666;20.110;2023-01-06T16:09:34;101591.13;;;9.14;65.55
76464;BME280;65301;46.666;20.110;2023-01-06T16:12:37;101593.78;;;9.04;66.13
76464;BME280;65301;46.666;20.110;2023-01-06T16:15:46;101594.59;;;9.05;67.12
76464;BME280;65301;46.666;20.110;2023-01-06T16:18:49;101594.06;;;9.08;68.15
76464;BME280;65301;46.666;20.110;2023-01-06T16:21:53;101602.50;;;9.05;69.64
76464;BME280;65301;46.666;20.110;2023-01-06T16:24:56;101599.34;;;8.98;69.04
76464;BME280;65301;46.666;20.110;2023-01-06T16:28:02;101591.72;;;8.96;67.85
76464;BME280;65301;46.666;20.110;2023-01-06T16:31:10;101588.00;;;9.07;65.32
76464;BME280;65301;46.666;20.110;2023-01-06T16:34:27;101583.47;;;9.23;65.64
76464;BME280;65301;46.666;20.110;2023-01-06T16:37:34;101590.31;;;9.24;66.61
76464;BME280;65301;46.666;20.110;2023-01-06T16:40:35;101597.16;;;9.30;67.34
76464;BME280;65301;46.666;20.110;2023-01-06T16:43:37;101588.75;;;9.23;68.63
76464;BME280;65301;46.666;20.110;2023-01-06T16:46:39;101603.28;;;9.10;66.87
76464;BME280;65301;46.666;20.110;2023-01-06T16:49:40;101599.06;;;9.04;65.32
76464;BME280;65301;46.666;20.110;2023-01-06T16:52:43;101590.34;;;9.09;64.38
76464;BME280;65301;46.666;20.110;2023-01-06T16:55:53;101590.41;;;9.04;66.62
76464;BME280;65301;46.666;20.110;2023-01-06T16:58:55;101583.31;;;8.94;64.68
76464;BME280;65301;46.666;20.110;2023-01-06T17:02:01;101600.66;;;9.05;65.74
76464;BME280;65301;46.666;20.110;2023-01-06T17:05:27;101609.09;;;9.02;64.87
76464;BME280;65301;46.666;20.110;2023-01-06T17:08:36;101614.38;;;8.92;65.31
76464;BME280;65301;46.666;20.110;2023-01-06T17:11:38;101608.59;;;8.85;65.61
76464;BME280;65301;46.666;20.110;2023-01-06T17:14:40;101611.25;;;8.75;66.24
76464;BME280;65301;46.666;20.110;2023-01-06T17:17:41;101613.88;;;8.75;65.73
76464;BME280;65301;46.666;20.110;2023-01-06T17:20:43;101607.06;;;8.69;66.91
76464;BME280;65301;46.666;20.110;2023-01-06T17:23:51;101605.75;;;8.61;66.20
76464;BME280;65301;46.666;20.110;2023-01-06T17:27:21;101609.19;;;8.62;67.51
76464;BME280;65301;46.666;20.110;2023-01-06T17:30:20;101612.34;;;8.59;67.83
76464;BME280;65301;46.666;20.110;2023-01-06T17:33:22;101604.72;;;8.47;69.36
76464;BME280;65301;46.666;20.110;2023-01-06T17:36:34;101608.16;;;8.43;70.91
76464;BME280;65301;46.666;20.110;2023-01-06T17:39:39;101620.78;;;8.36;69.06
76464;BME280;65301;46.666;20.110;2023-01-06T17:42:41;101617.84;;;8.17;70.69
76464;BME280;65301;46.666;20.110;2023-01-06T17:45:44;101615.19;;;7.92;72.40
76464;BME280;65301;46.666;20.110;2023-01-06T17:48:47;101614.63;;;7.85;71.78
76464;BME280;65301;46.666;20.110;2023-01-06T17:51:50;101616.22;;;7.86;71.93
76464;BME280;65301;46.666;20.110;2023-01-06T17:54:55;101622.78;;;7.78;73.60
76464;BME280;65301;46.666;20.110;2023-01-06T17:58:18;101616.75;;;7.83;72.68